sensor_id;sensor_type;location;lat;lon;timestamp;P1;durP1;ratioP1;P2;durP2;ratioP2
42714;SDS011;28351;51.480;5.706;2022-09-09T00:06:45;2.92;;;2.25;;
42714;SDS011;28351;51.480;5.706;2022-09-09T00:09:40;2.65;;;2.05;;
42714;SDS011;28351;51.480;5.706;2022-09-09T00:12:12;2.53;;;2.20;;
42714;SDS011;28351;51.480;5.706;2022-09-09T00:14:54;3.78;;;2.40;;
42714;SDS011;28351;51.480;5.706;2022-09-09T00:22:40;3.25;;;2.50;;
42714;SDS011;28351;51.480;5.706;2022-09-09T00:25:23;3.65;;;2.50;;
42714;SDS011;28351;51.480;5.706;2022-09-09T00:27:56;3.05;;;2.13;;
42714;SDS011;28351;51.480;5.706;2022-09-09T00:30:23;4.03;;;2.42;;
42714;SDS011;28351;51.480;5.706;2022-09-09T00:32:54;4.20;;;2.70;;
42714;SDS011;28351;51.480;5.706;2022-09-09T00:35:28;2.95;;;2.38;;
42714;SDS011;28351;51.480;5.706;2022-09-09T00:43:40;3.78;;;3.00;;
42714;SDS011;28351;51.480;5.706;2022-09-09T00:49:17;3.35;;;2.80;;
42714;SDS011;28351;51.480;5.706;2022-09-09T00:55:01;6.18;;;2.17;;
42714;SDS011;28351;51.480;5.706;2022-09-09T00:57:33;4.75;;;2.97;;
42714;SDS011;28351;51.480;5.706;2022-09-09T01:08:04;3.50;;;2.53;;
42714;SDS011;28351;51.480;5.706;2022-09-09T01:15:52;4.25;;;2.40;;
42714;SDS011;28351;51.480;5.706;2022-09-09T01:18:19;7.25;;;2.70;;
42714;SDS011;28351;51.480;5.706;2022-09-09T01:20:52;4.68;;;2.45;;
42714;SDS011;28351;51.480;5.706;2022-09-09T01:23:44;4.32;;;2.85;;
42714;SDS011;28351;51.480;5.706;2022-09-09T01:26:34;2.92;;;2.63;;
42714;SDS011;28351;51.480;5.706;2022-09-09T01:29:08;3.90;;;3.25;;
42714;SDS011;28351;51.480;5.706;2022-09-09T01:31:37;5.43;;;3.10;;
42714;SDS011;28351;51.480;5.706;2022-09-09T01:34:16;4.95;;;2.67;;
42714;SDS011;28351;51.480;5.706;2022-09-09T01:36:43;3.65;;;2.53;;
42714;SDS011;28351;51.480;5.706;2022-09-09T01:39:12;3.20;;;2.70;;
42714;SDS011;28351;51.480;5.706;2022-09-09T01:41:38;4.85;;;2.92;;
42714;SDS011;28351;51.480;5.706;2022-09-09T01:44:04;5.95;;;2.95;;
42714;SDS011;28351;51.480;5.706;2022-09-09T01:46:31;9.27;;;3.30;;
42714;SDS011;28351;51.480;5.706;2022-09-09T01:48:57;3.78;;;2.78;;
42714;SDS011;28351;51.480;5.706;2022-09-09T01:51:25;9.43;;;4.18;;
42714;SDS011;28351;51.480;5.706;2022-09-09T01:53:51;4.13;;;3.35;;
42714;SDS011;28351;51.480;5.706;2022-09-09T02:02:11;4.28;;;3.28;;
42714;SDS011;28351;51.480;5.706;2022-09-09T02:04:44;4.28;;;3.42;;
42714;SDS011;28351;51.480;5.706;2022-09-09T02:10:05;5.85;;;3.70;;
42714;SDS011;28351;51.480;5.706;2022-09-09T02:12:40;5.13;;;3.55;;
42714;SDS011;28351;51.480;5.706;2022-09-09T02:15:16;5.65;;;3.38;;
42714;SDS011;28351;51.480;5.706;2022-09-09T02:17:53;5.00;;;3.67;;
42714;SDS011;28351;51.480;5.706;2022-09-09T02:20:23;5.60;;;3.67;;
42714;SDS011;28351;51.480;5.706;2022-09-09T02:25:18;8.48;;;3.92;;
42714;SDS011;28351;51.480;5.706;2022-09-09T02:27:47;4.70;;;3.22;;
42714;SDS011;28351;51.480;5.706;2022-09-09T02:30:13;5.38;;;3.25;;
42714;SDS011;28351;51.480;5.706;2022-09-09T02:32:40;8.23;;;3.72;;
42714;SDS011;28351;51.480;5.706;2022-09-09T02:35:12;11.23;;;3.80;;
42714;SDS011;28351;51.480;5.706;2022-09-09T02:37:40;5.88;;;2.78;;
42714;SDS011;28351;51.480;5.706;2022-09-09T02:40:09;6.70;;;3.63;;
42714;SDS011;28351;51.480;5.706;2022-09-09T02:42:40;5.45;;;3.63;;
42714;SDS011;28351;51.480;5.706;2022-09-09T02:45:07;5.40;;;3.83;;
42714;SDS011;28351;51.480;5.706;2022-09-09T02:47:37;5.05;;;3.72;;
42714;SDS011;28351;51.480;5.706;2022-09-09T02:50:08;8.32;;;3.63;;
42714;SDS011;28351;51.480;5.706;2022-09-09T02:55:40;7.72;;;3.80;;
42714;SDS011;28351;51.480;5.706;2022-09-09T02:58:12;7.68;;;4.13;;
42714;SDS011;28351;51.480;5.706;2022-09-09T03:00:42;5.80;;;3.85;;
42714;SDS011;28351;51.480;5.706;2022-09-09T03:03:10;9.48;;;4.28;;
42714;SDS011;28351;51.480;5.706;2022-09-09T03:05:36;5.93;;;3.80;;
42714;SDS011;28351;51.480;5.706;2022-09-09T03:08:02;4.97;;;3.63;;
42714;SDS011;28351;51.480;5.706;2022-09-09T03:10:28;7.13;;;3.65;;
42714;SDS011;28351;51.480;5.706;2022-09-09T03:12:54;6.88;;;3.47;;
42714;SDS011;28351;51.480;5.706;2022-09-09T03:15:20;8.95;;;3.78;;
42714;SDS011;28351;51.480;5.706;2022-09-09T03:17:49;7.32;;;3.78;;
42714;SDS011;28351;51.480;5.706;2022-09-09T03:20:15;5.38;;;3.20;;
42714;SDS011;28351;51.480;5.706;2022-09-09T03:22:41;4.90;;;3.20;;
42714;SDS011;28351;51.480;5.706;2022-09-09T03:25:07;4.97;;;3.58;;
42714;SDS011;28351;51.480;5.706;2022-09-09T03:27:32;4.63;;;3.47;;
42714;SDS011;28351;51.480;5.706;2022-09-09T03:29:58;9.88;;;3.63;;
42714;SDS011;28351;51.480;5.706;2022-09-09T03:32:25;9.95;;;3.65;;
42714;SDS011;28351;51.480;5.706;2022-09-09T03:34:53;6.00;;;3.30;;
42714;SDS011;28351;51.480;5.706;2022-09-09T03:37:19;6.45;;;3.40;;
42714;SDS011;28351;51.480;5.706;2022-09-09T03:39:47;9.07;;;4.63;;
42714;SDS011;28351;51.480;5.706;2022-09-09T03:42:13;4.07;;;3.25;;
42714;SDS011;28351;51.480;5.706;2022-09-09T03:44:39;4.15;;;3.22;;
42714;SDS011;28351;51.480;5.706;2022-09-09T03:47:06;6.05;;;3.50;;
42714;SDS011;28351;51.480;5.706;2022-09-09T03:49:32;7.90;;;3.60;;
42714;SDS011;28351;51.480;5.706;2022-09-09T03:51:58;7.57;;;3.17;;
42714;SDS011;28351;51.480;5.706;2022-09-09T03:54:24;4.95;;;3.25;;
42714;SDS011;28351;51.480;5.706;2022-09-09T03:56:50;4.35;;;2.92;;
42714;SDS011;28351;51.480;5.706;2022-09-09T03:59:16;8.95;;;3.45;;
42714;SDS011;28351;51.480;5.706;2022-09-09T04:01:42;7.18;;;3.53;;
42714;SDS011;28351;51.480;5.706;2022-09-09T04:04:07;5.93;;;3.78;;
42714;SDS011;28351;51.480;5.706;2022-09-09T04:06:33;7.00;;;3.67;;
42714;SDS011;28351;51.480;5.706;2022-09-09T04:08:59;8.10;;;3.92;;
42714;SDS011;28351;51.480;5.706;2022-09-09T04:11:27;7.78;;;3.47;;
42714;SDS011;28351;51.480;5.706;2022-09-09T04:13:53;5.38;;;3.45;;
42714;SDS011;28351;51.480;5.706;2022-09-09T04:16:19;6.65;;;3.70;;
42714;SDS011;28351;51.480;5.706;2022-09-09T04:18:45;8.65;;;3.50;;
42714;SDS011;28351;51.480;5.706;2022-09-09T04:21:11;9.48;;;3.33;;
42714;SDS011;28351;51.480;5.706;2022-09-09T04:23:37;8.48;;;3.38;;
42714;SDS011;28351;51.480;5.706;2022-09-09T04:26:03;9.88;;;2.92;;
42714;SDS011;28351;51.480;5.706;2022-09-09T04:28:31;3.72;;;3.00;;
42714;SDS011;28351;51.480;5.706;2022-09-09T04:31:05;4.35;;;2.97;;
42714;SDS011;28351;51.480;5.706;2022-09-09T04:33:36;6.20;;;3.20;;
42714;SDS011;28351;51.480;5.706;2022-09-09T04:36:03;6.70;;;3.10;;
42714;SDS011;28351;51.480;5.706;2022-09-09T04:38:29;5.60;;;2.75;;
42714;SDS011;28351;51.480;5.706;2022-09-09T04:40:55;8.43;;;3.50;;
42714;SDS011;28351;51.480;5.706;2022-09-09T04:43:21;6.88;;;3.10;;
42714;SDS011;28351;51.480;5.706;2022-09-09T04:45:47;6.07;;;3.50;;
42714;SDS011;28351;51.480;5.706;2022-09-09T04:48:14;8.50;;;3.40;;
42714;SDS011;28351;51.480;5.706;2022-09-09T04:50:40;6.07;;;3.00;;
42714;SDS011;28351;51.480;5.706;2022-09-09T04:53:06;10.38;;;3.75;;
42714;SDS011;28351;51.480;5.706;2022-09-09T04:55:32;8.32;;;3.13;;
42714;SDS011;28351;51.480;5.706;2022-09-09T04:58:06;5.20;;;3.05;;
42714;SDS011;28351;51.480;5.706;2022-09-09T05:00:33;7.43;;;3.00;;
42714;SDS011;28351;51.480;5.706;2022-09-09T05:03:09;6.97;;;3.30;;
42714;SDS011;28351;51.480;5.706;2022-09-09T05:05:35;5.75;;;2.58;;
42714;SDS011;28351;51.480;5.706;2022-09-09T05:08:01;7.72;;;3.35;;
42714;SDS011;28351;51.480;5.706;2022-09-09T05:10:28;5.63;;;3.00;;
42714;SDS011;28351;51.480;5.706;2022-09-09T05:12:54;8.75;;;2.83;;
42714;SDS011;28351;51.480;5.706;2022-09-09T05:15:20;7.13;;;3.17;;
42714;SDS011;28351;51.480;5.706;2022-09-09T05:17:47;7.57;;;3.65;;
42714;SDS011;28351;51.480;5.706;2022-09-09T05:20:12;5.88;;;3.45;;
42714;SDS011;28351;51.480;5.706;2022-09-09T05:22:38;8.57;;;3.30;;
42714;SDS011;28351;51.480;5.706;2022-09-09T05:25:04;3.97;;;2.65;;
42714;SDS011;28351;51.480;5.706;2022-09-09T05:27:29;6.32;;;3.33;;
42714;SDS011;28351;51.480;5.706;2022-09-09T05:29:57;5.55;;;2.75;;
42714;SDS011;28351;51.480;5.706;2022-09-09T05:32:23;5.28;;;3.15;;
42714;SDS011;28351;51.480;5.706;2022-09-09T05:34:49;6.25;;;3.05;;
42714;SDS011;28351;51.480;5.706;2022-09-09T05:37:15;6.10;;;3.05;;
42714;SDS011;28351;51.480;5.706;2022-09-09T05:39:41;5.35;;;3.40;;
42714;SDS011;28351;51.480;5.706;2022-09-09T05:42:07;6.95;;;3.10;;
42714;SDS011;28351;51.480;5.706;2022-09-09T05:44:32;5.28;;;2.80;;
42714;SDS011;28351;51.480;5.706;2022-09-09T05:46:58;8.80;;;3.67;;
42714;SDS011;28351;51.480;5.706;2022-09-09T05:49:24;10.18;;;3.47;;
42714;SDS011;28351;51.480;5.706;2022-09-09T05:51:49;5.20;;;3.00;;
42714;SDS011;28351;51.480;5.706;2022-09-09T05:54:16;10.10;;;3.30;;
42714;SDS011;28351;51.480;5.706;2022-09-09T05:56:41;4.50;;;3.20;;
42714;SDS011;28351;51.480;5.706;2022-09-09T05:59:07;9.57;;;3.78;;
42714;SDS011;28351;51.480;5.706;2022-09-09T06:01:34;8.25;;;3.20;;
42714;SDS011;28351;51.480;5.706;2022-09-09T06:04:01;8.07;;;4.07;;
42714;SDS011;28351;51.480;5.706;2022-09-09T06:06:30;9.25;;;3.65;;
42714;SDS011;28351;51.480;5.706;2022-09-09T06:09:05;8.55;;;3.50;;
42714;SDS011;28351;51.480;5.706;2022-09-09T06:11:36;9.25;;;3.42;;
42714;SDS011;28351;51.480;5.706;2022-09-09T06:14:03;7.43;;;3.80;;
42714;SDS011;28351;51.480;5.706;2022-09-09T06:16:30;10.02;;;3.38;;
42714;SDS011;28351;51.480;5.706;2022-09-09T06:18:57;7.47;;;3.85;;
42714;SDS011;28351;51.480;5.706;2022-09-09T06:21:27;9.55;;;3.55;;
42714;SDS011;28351;51.480;5.706;2022-09-09T06:26:32;7.93;;;3.10;;
42714;SDS011;28351;51.480;5.706;2022-09-09T06:28:59;9.30;;;3.78;;
42714;SDS011;28351;51.480;5.706;2022-09-09T06:31:29;9.18;;;3.60;;
42714;SDS011;28351;51.480;5.706;2022-09-09T06:33:56;8.52;;;3.40;;
42714;SDS011;28351;51.480;5.706;2022-09-09T06:36:27;5.88;;;3.28;;
42714;SDS011;28351;51.480;5.706;2022-09-09T06:38:54;5.63;;;3.28;;
42714;SDS011;28351;51.480;5.706;2022-09-09T06:41:21;7.20;;;3.28;;
42714;SDS011;28351;51.480;5.706;2022-09-09T06:43:48;11.75;;;3.67;;
42714;SDS011;28351;51.480;5.706;2022-09-09T06:48:58;6.78;;;3.65;;
42714;SDS011;28351;51.480;5.706;2022-09-09T06:51:34;9.70;;;3.70;;
42714;SDS011;28351;51.480;5.706;2022-09-09T06:54:01;9.05;;;2.95;;
42714;SDS011;28351;51.480;5.706;2022-09-09T06:56:28;4.97;;;2.95;;
42714;SDS011;28351;51.480;5.706;2022-09-09T06:58:59;11.85;;;3.08;;
42714;SDS011;28351;51.480;5.706;2022-09-09T07:01:29;5.93;;;2.90;;
42714;SDS011;28351;51.480;5.706;2022-09-09T07:03:57;6.63;;;3.15;;
42714;SDS011;28351;51.480;5.706;2022-09-09T07:06:27;9.55;;;2.78;;
42714;SDS011;28351;51.480;5.706;2022-09-09T07:08:56;4.65;;;2.50;;
42714;SDS011;28351;51.480;5.706;2022-09-09T07:11:27;6.38;;;3.05;;
42714;SDS011;28351;51.480;5.706;2022-09-09T07:13:58;5.60;;;2.53;;
42714;SDS011;28351;51.480;5.706;2022-09-09T07:16:24;7.43;;;2.80;;
42714;SDS011;28351;51.480;5.706;2022-09-09T07:18:53;4.93;;;2.50;;
42714;SDS011;28351;51.480;5.706;2022-09-09T07:21:23;7.82;;;2.97;;
42714;SDS011;28351;51.480;5.706;2022-09-09T07:23:51;6.57;;;2.55;;
42714;SDS011;28351;51.480;5.706;2022-09-09T07:26:17;6.50;;;2.30;;
42714;SDS011;28351;51.480;5.706;2022-09-09T07:28:45;5.47;;;2.38;;
42714;SDS011;28351;51.480;5.706;2022-09-09T07:31:30;7.60;;;2.08;;
42714;SDS011;28351;51.480;5.706;2022-09-09T07:33:57;10.13;;;2.40;;
42714;SDS011;28351;51.480;5.706;2022-09-09T07:36:25;5.78;;;1.92;;
42714;SDS011;28351;51.480;5.706;2022-09-09T07:38:56;5.78;;;1.90;;
42714;SDS011;28351;51.480;5.706;2022-09-09T07:41:25;5.10;;;2.00;;
42714;SDS011;28351;51.480;5.706;2022-09-09T07:43:59;7.25;;;2.00;;
42714;SDS011;28351;51.480;5.706;2022-09-09T07:46:28;5.38;;;2.00;;
42714;SDS011;28351;51.480;5.706;2022-09-09T07:48:54;5.45;;;2.13;;
42714;SDS011;28351;51.480;5.706;2022-09-09T07:53:56;5.30;;;1.92;;
42714;SDS011;28351;51.480;5.706;2022-09-09T07:56:24;6.10;;;2.55;;
42714;SDS011;28351;51.480;5.706;2022-09-09T07:58:51;10.15;;;2.00;;
42714;SDS011;28351;51.480;5.706;2022-09-09T08:01:22;4.03;;;1.55;;
42714;SDS011;28351;51.480;5.706;2022-09-09T08:03:54;2.92;;;1.33;;
42714;SDS011;28351;51.480;5.706;2022-09-09T08:06:24;2.50;;;1.40;;
42714;SDS011;28351;51.480;5.706;2022-09-09T08:08:51;5.05;;;1.70;;
42714;SDS011;28351;51.480;5.706;2022-09-09T08:11:17;3.17;;;1.50;;
42714;SDS011;28351;51.480;5.706;2022-09-09T08:13:44;7.50;;;1.73;;
42714;SDS011;28351;51.480;5.706;2022-09-09T08:16:17;5.35;;;1.60;;
42714;SDS011;28351;51.480;5.706;2022-09-09T08:18:47;6.57;;;1.73;;
42714;SDS011;28351;51.480;5.706;2022-09-09T08:21:14;6.05;;;1.70;;
42714;SDS011;28351;51.480;5.706;2022-09-09T08:23:45;4.13;;;1.23;;
42714;SDS011;28351;51.480;5.706;2022-09-09T08:26:15;6.45;;;1.70;;
42714;SDS011;28351;51.480;5.706;2022-09-09T08:28:47;6.95;;;1.50;;
42714;SDS011;28351;51.480;5.706;2022-09-09T08:31:18;6.80;;;1.38;;
42714;SDS011;28351;51.480;5.706;2022-09-09T08:33:44;3.60;;;1.20;;
42714;SDS011;28351;51.480;5.706;2022-09-09T08:36:14;4.55;;;1.40;;
42714;SDS011;28351;51.480;5.706;2022-09-09T08:38:42;6.65;;;1.55;;
42714;SDS011;28351;51.480;5.706;2022-09-09T08:43:49;6.43;;;1.90;;
42714;SDS011;28351;51.480;5.706;2022-09-09T08:46:29;3.65;;;1.70;;
42714;SDS011;28351;51.480;5.706;2022-09-09T08:48:58;5.22;;;1.67;;
42714;SDS011;28351;51.480;5.706;2022-09-09T08:51:29;5.25;;;1.60;;
42714;SDS011;28351;51.480;5.706;2022-09-09T08:53:58;4.28;;;1.50;;
42714;SDS011;28351;51.480;5.706;2022-09-09T08:56:27;2.65;;;1.20;;
42714;SDS011;28351;51.480;5.706;2022-09-09T08:58:56;5.95;;;1.60;;
42714;SDS011;28351;51.480;5.706;2022-09-09T09:04:07;4.82;;;1.42;;
42714;SDS011;28351;51.480;5.706;2022-09-09T09:09:29;7.07;;;1.52;;
42714;SDS011;28351;51.480;5.706;2022-09-09T09:12:24;3.80;;;1.70;;
42714;SDS011;28351;51.480;5.706;2022-09-09T09:14:54;4.03;;;1.35;;
42714;SDS011;28351;51.480;5.706;2022-09-09T09:17:21;5.68;;;1.70;;
42714;SDS011;28351;51.480;5.706;2022-09-09T09:19:50;4.15;;;1.30;;
42714;SDS011;28351;51.480;5.706;2022-09-09T09:22:22;6.15;;;1.40;;
42714;SDS011;28351;51.480;5.706;2022-09-09T09:25:01;5.43;;;1.30;;
42714;SDS011;28351;51.480;5.706;2022-09-09T09:30:49;6.95;;;1.70;;
42714;SDS011;28351;51.480;5.706;2022-09-09T09:33:21;3.67;;;1.50;;
42714;SDS011;28351;51.480;5.706;2022-09-09T09:35:58;4.32;;;1.27;;
42714;SDS011;28351;51.480;5.706;2022-09-09T09:38:25;4.20;;;1.50;;
42714;SDS011;28351;51.480;5.706;2022-09-09T09:40:56;4.75;;;1.40;;
42714;SDS011;28351;51.480;5.706;2022-09-09T09:43:29;4.03;;;1.35;;
42714;SDS011;28351;51.480;5.706;2022-09-09T09:45:59;4.22;;;1.55;;
42714;SDS011;28351;51.480;5.706;2022-09-09T09:48:28;8.15;;;1.63;;
42714;SDS011;28351;51.480;5.706;2022-09-09T09:50:54;3.08;;;1.33;;
42714;SDS011;28351;51.480;5.706;2022-09-09T09:53:26;6.35;;;1.20;;
42714;SDS011;28351;51.480;5.706;2022-09-09T09:55:57;5.22;;;1.70;;
42714;SDS011;28351;51.480;5.706;2022-09-09T09:58:32;4.97;;;1.40;;
42714;SDS011;28351;51.480;5.706;2022-09-09T10:01:01;5.13;;;1.20;;
42714;SDS011;28351;51.480;5.706;2022-09-09T10:03:29;5.38;;;1.90;;
42714;SDS011;28351;51.480;5.706;2022-09-09T10:05:56;5.03;;;1.45;;
42714;SDS011;28351;51.480;5.706;2022-09-09T10:08:25;3.25;;;1.17;;
42714;SDS011;28351;51.480;5.706;2022-09-09T10:10:56;3.50;;;0.95;;
42714;SDS011;28351;51.480;5.706;2022-09-09T10:16:39;4.30;;;1.13;;
42714;SDS011;28351;51.480;5.706;2022-09-09T10:19:13;6.40;;;1.23;;
42714;SDS011;28351;51.480;5.706;2022-09-09T10:27:03;3.58;;;1.13;;
42714;SDS011;28351;51.480;5.706;2022-09-09T10:34:56;7.20;;;1.80;;
42714;SDS011;28351;51.480;5.706;2022-09-09T10:37:49;3.63;;;1.15;;
42714;SDS011;28351;51.480;5.706;2022-09-09T10:43:27;5.65;;;1.50;;
42714;SDS011;28351;51.480;5.706;2022-09-09T10:56:22;4.78;;;1.70;;
42714;SDS011;28351;51.480;5.706;2022-09-09T10:58:59;5.70;;;1.73;;
42714;SDS011;28351;51.480;5.706;2022-09-09T11:04:47;6.78;;;2.50;;
42714;SDS011;28351;51.480;5.706;2022-09-09T11:07:28;5.97;;;2.05;;
42714;SDS011;28351;51.480;5.706;2022-09-09T11:10:01;4.47;;;2.13;;
42714;SDS011;28351;51.480;5.706;2022-09-09T11:12:31;5.65;;;2.00;;
42714;SDS011;28351;51.480;5.706;2022-09-09T11:15:08;5.55;;;2.08;;
42714;SDS011;28351;51.480;5.706;2022-09-09T11:17:52;4.75;;;2.08;;
42714;SDS011;28351;51.480;5.706;2022-09-09T11:20:21;7.40;;;2.58;;
42714;SDS011;28351;51.480;5.706;2022-09-09T11:23:02;4.57;;;2.08;;
42714;SDS011;28351;51.480;5.706;2022-09-09T11:25:43;7.10;;;2.40;;
42714;SDS011;28351;51.480;5.706;2022-09-09T11:44:53;4.47;;;1.40;;
42714;SDS011;28351;51.480;5.706;2022-09-09T11:47:26;4.53;;;1.38;;
42714;SDS011;28351;51.480;5.706;2022-09-09T11:50:09;3.92;;;1.65;;
42714;SDS011;28351;51.480;5.706;2022-09-09T11:52:44;6.22;;;1.80;;
42714;SDS011;28351;51.480;5.706;2022-09-09T11:55:25;3.40;;;1.55;;
42714;SDS011;28351;51.480;5.706;2022-09-09T11:58:00;3.38;;;1.55;;
42714;SDS011;28351;51.480;5.706;2022-09-09T12:06:15;4.22;;;1.95;;
42714;SDS011;28351;51.480;5.706;2022-09-09T12:11:10;3.88;;;1.52;;
42714;SDS011;28351;51.480;5.706;2022-09-09T12:13:36;3.72;;;1.52;;
42714;SDS011;28351;51.480;5.706;2022-09-09T12:16:02;5.40;;;1.80;;
42714;SDS011;28351;51.480;5.706;2022-09-09T12:18:34;4.32;;;1.73;;
42714;SDS011;28351;51.480;5.706;2022-09-09T12:23:54;3.97;;;1.90;;
42714;SDS011;28351;51.480;5.706;2022-09-09T12:31:45;4.22;;;1.60;;
42714;SDS011;28351;51.480;5.706;2022-09-09T12:34:33;4.22;;;1.80;;
42714;SDS011;28351;51.480;5.706;2022-09-09T12:37:18;5.97;;;1.55;;
42714;SDS011;28351;51.480;5.706;2022-09-09T12:39:57;3.25;;;1.55;;
42714;SDS011;28351;51.480;5.706;2022-09-09T12:42:24;4.32;;;1.70;;
42714;SDS011;28351;51.480;5.706;2022-09-09T12:44:58;6.65;;;1.80;;
42714;SDS011;28351;51.480;5.706;2022-09-09T12:47:27;5.20;;;1.80;;
42714;SDS011;28351;51.480;5.706;2022-09-09T12:50:14;5.25;;;1.70;;
42714;SDS011;28351;51.480;5.706;2022-09-09T12:55:49;5.03;;;1.40;;
42714;SDS011;28351;51.480;5.706;2022-09-09T12:58:17;4.45;;;1.33;;
42714;SDS011;28351;51.480;5.706;2022-09-09T13:00:51;2.75;;;1.60;;
42714;SDS011;28351;51.480;5.706;2022-09-09T13:03:21;3.75;;;1.27;;
42714;SDS011;28351;51.480;5.706;2022-09-09T13:05:47;5.75;;;1.95;;
42714;SDS011;28351;51.480;5.706;2022-09-09T13:08:16;2.45;;;1.40;;
42714;SDS011;28351;51.480;5.706;2022-09-09T13:13:28;2.72;;;1.55;;
42714;SDS011;28351;51.480;5.706;2022-09-09T13:16:06;3.90;;;1.45;;
42714;SDS011;28351;51.480;5.706;2022-09-09T13:18:44;3.00;;;1.30;;
42714;SDS011;28351;51.480;5.706;2022-09-09T13:21:10;3.05;;;1.60;;
42714;SDS011;28351;51.480;5.706;2022-09-09T13:23:42;2.28;;;1.30;;
42714;SDS011;28351;51.480;5.706;2022-09-09T13:26:24;2.10;;;1.17;;
42714;SDS011;28351;51.480;5.706;2022-09-09T13:28:52;3.55;;;1.33;;
42714;SDS011;28351;51.480;5.706;2022-09-09T13:31:33;3.78;;;1.23;;
42714;SDS011;28351;51.480;5.706;2022-09-09T13:34:10;2.53;;;0.98;;
42714;SDS011;28351;51.480;5.706;2022-09-09T13:36:52;3.67;;;1.60;;
42714;SDS011;28351;51.480;5.706;2022-09-09T13:39:22;1.95;;;0.73;;
42714;SDS011;28351;51.480;5.706;2022-09-09T13:41:48;3.85;;;1.30;;
42714;SDS011;28351;51.480;5.706;2022-09-09T13:44:14;1.85;;;0.82;;
42714;SDS011;28351;51.480;5.706;2022-09-09T13:46:58;1.98;;;0.98;;
42714;SDS011;28351;51.480;5.706;2022-09-09T13:49:29;6.32;;;1.20;;
42714;SDS011;28351;51.480;5.706;2022-09-09T13:52:04;5.13;;;1.00;;
42714;SDS011;28351;51.480;5.706;2022-09-09T13:54:38;1.88;;;0.90;;
42714;SDS011;28351;51.480;5.706;2022-09-09T13:57:05;2.63;;;1.00;;
42714;SDS011;28351;51.480;5.706;2022-09-09T13:59:38;3.00;;;0.95;;
42714;SDS011;28351;51.480;5.706;2022-09-09T14:02:04;3.72;;;1.42;;
42714;SDS011;28351;51.480;5.706;2022-09-09T14:04:30;2.80;;;0.90;;
42714;SDS011;28351;51.480;5.706;2022-09-09T14:07:00;3.20;;;1.08;;
42714;SDS011;28351;51.480;5.706;2022-09-09T14:09:25;2.17;;;0.70;;
42714;SDS011;28351;51.480;5.706;2022-09-09T14:11:51;2.60;;;1.00;;
42714;SDS011;28351;51.480;5.706;2022-09-09T14:14:17;2.33;;;1.02;;
42714;SDS011;28351;51.480;5.706;2022-09-09T14:16:42;4.32;;;1.38;;
42714;SDS011;28351;51.480;5.706;2022-09-09T14:19:08;1.75;;;0.70;;
42714;SDS011;28351;51.480;5.706;2022-09-09T14:21:34;3.22;;;0.98;;
42714;SDS011;28351;51.480;5.706;2022-09-09T14:24:00;1.63;;;0.80;;
42714;SDS011;28351;51.480;5.706;2022-09-09T14:26:26;1.70;;;0.85;;
42714;SDS011;28351;51.480;5.706;2022-09-09T14:28:53;2.15;;;0.80;;
42714;SDS011;28351;51.480;5.706;2022-09-09T14:31:19;4.15;;;1.23;;
42714;SDS011;28351;51.480;5.706;2022-09-09T14:33:45;2.90;;;1.10;;
42714;SDS011;28351;51.480;5.706;2022-09-09T14:36:11;2.05;;;0.80;;
42714;SDS011;28351;51.480;5.706;2022-09-09T14:38:38;1.40;;;1.00;;
42714;SDS011;28351;51.480;5.706;2022-09-09T14:41:11;2.40;;;1.20;;
42714;SDS011;28351;51.480;5.706;2022-09-09T14:43:38;2.22;;;1.02;;
42714;SDS011;28351;51.480;5.706;2022-09-09T14:46:05;3.38;;;1.05;;
42714;SDS011;28351;51.480;5.706;2022-09-09T14:48:35;2.28;;;1.00;;
42714;SDS011;28351;51.480;5.706;2022-09-09T14:51:05;4.82;;;1.15;;
42714;SDS011;28351;51.480;5.706;2022-09-09T14:53:32;2.05;;;0.90;;
42714;SDS011;28351;51.480;5.706;2022-09-09T14:56:07;1.67;;;0.80;;
42714;SDS011;28351;51.480;5.706;2022-09-09T14:58:35;2.83;;;0.90;;
42714;SDS011;28351;51.480;5.706;2022-09-09T15:01:02;2.15;;;0.80;;
42714;SDS011;28351;51.480;5.706;2022-09-09T15:03:29;1.98;;;1.15;;
42714;SDS011;28351;51.480;5.706;2022-09-09T15:05:54;3.60;;;1.27;;
42714;SDS011;28351;51.480;5.706;2022-09-09T15:08:20;4.07;;;1.10;;
42714;SDS011;28351;51.480;5.706;2022-09-09T15:10:45;3.13;;;0.90;;
42714;SDS011;28351;51.480;5.706;2022-09-09T15:13:12;2.35;;;1.20;;
42714;SDS011;28351;51.480;5.706;2022-09-09T15:15:41;2.10;;;0.85;;
42714;SDS011;28351;51.480;5.706;2022-09-09T15:18:08;3.38;;;1.30;;
42714;SDS011;28351;51.480;5.706;2022-09-09T15:20:33;5.47;;;0.90;;
42714;SDS011;28351;51.480;5.706;2022-09-09T15:23:00;4.80;;;1.20;;
42714;SDS011;28351;51.480;5.706;2022-09-09T15:25:26;3.40;;;1.20;;
42714;SDS011;28351;51.480;5.706;2022-09-09T15:27:51;4.43;;;1.15;;
42714;SDS011;28351;51.480;5.706;2022-09-09T15:30:17;3.60;;;1.27;;
42714;SDS011;28351;51.480;5.706;2022-09-09T15:32:42;2.88;;;1.13;;
42714;SDS011;28351;51.480;5.706;2022-09-09T15:35:08;4.07;;;1.70;;
42714;SDS011;28351;51.480;5.706;2022-09-09T15:37:33;3.40;;;1.48;;
42714;SDS011;28351;51.480;5.706;2022-09-09T15:39:59;9.75;;;5.32;;
42714;SDS011;28351;51.480;5.706;2022-09-09T15:42:25;9.30;;;4.80;;
42714;SDS011;28351;51.480;5.706;2022-09-09T15:44:51;5.00;;;1.80;;
42714;SDS011;28351;51.480;5.706;2022-09-09T15:47:16;3.05;;;1.10;;
42714;SDS011;28351;51.480;5.706;2022-09-09T15:49:42;4.85;;;1.42;;
42714;SDS011;28351;51.480;5.706;2022-09-09T15:52:09;4.20;;;1.42;;
42714;SDS011;28351;51.480;5.706;2022-09-09T15:54:36;3.42;;;1.10;;
42714;SDS011;28351;51.480;5.706;2022-09-09T15:57:04;3.40;;;1.20;;
42714;SDS011;28351;51.480;5.706;2022-09-09T15:59:33;4.07;;;1.08;;
42714;SDS011;28351;51.480;5.706;2022-09-09T16:01:59;2.28;;;0.90;;
42714;SDS011;28351;51.480;5.706;2022-09-09T16:04:26;1.58;;;0.80;;
42714;SDS011;28351;51.480;5.706;2022-09-09T16:07:01;3.90;;;1.13;;
42714;SDS011;28351;51.480;5.706;2022-09-09T16:09:30;3.53;;;1.23;;
42714;SDS011;28351;51.480;5.706;2022-09-09T16:11:58;3.50;;;1.77;;
42714;SDS011;28351;51.480;5.706;2022-09-09T16:14:25;3.05;;;1.50;;
42714;SDS011;28351;51.480;5.706;2022-09-09T16:16:52;2.58;;;1.27;;
42714;SDS011;28351;51.480;5.706;2022-09-09T16:19:18;3.28;;;1.55;;
42714;SDS011;28351;51.480;5.706;2022-09-09T16:21:47;5.35;;;1.67;;
42714;SDS011;28351;51.480;5.706;2022-09-09T16:24:15;9.82;;;3.67;;
42714;SDS011;28351;51.480;5.706;2022-09-09T16:26:43;5.35;;;1.70;;
42714;SDS011;28351;51.480;5.706;2022-09-09T16:29:10;2.10;;;0.93;;
42714;SDS011;28351;51.480;5.706;2022-09-09T16:31:37;4.78;;;1.50;;
42714;SDS011;28351;51.480;5.706;2022-09-09T16:34:04;3.70;;;2.10;;
42714;SDS011;28351;51.480;5.706;2022-09-09T16:36:30;5.65;;;3.58;;
42714;SDS011;28351;51.480;5.706;2022-09-09T16:41:25;2.65;;;1.20;;
42714;SDS011;28351;51.480;5.706;2022-09-09T16:43:56;2.63;;;0.80;;
42714;SDS011;28351;51.480;5.706;2022-09-09T16:46:24;2.15;;;1.00;;
42714;SDS011;28351;51.480;5.706;2022-09-09T16:48:50;6.03;;;1.42;;
42714;SDS011;28351;51.480;5.706;2022-09-09T16:51:17;6.03;;;1.75;;
42714;SDS011;28351;51.480;5.706;2022-09-09T16:56:14;1.67;;;1.27;;
42714;SDS011;28351;51.480;5.706;2022-09-09T16:58:42;3.13;;;1.73;;
42714;SDS011;28351;51.480;5.706;2022-09-09T17:01:09;4.45;;;2.40;;
42714;SDS011;28351;51.480;5.706;2022-09-09T17:03:38;7.50;;;2.40;;
42714;SDS011;28351;51.480;5.706;2022-09-09T17:06:08;2.30;;;0.90;;
42714;SDS011;28351;51.480;5.706;2022-09-09T17:08:34;3.13;;;1.00;;
42714;SDS011;28351;51.480;5.706;2022-09-09T17:11:00;1.95;;;0.93;;
42714;SDS011;28351;51.480;5.706;2022-09-09T17:13:26;2.15;;;1.17;;
42714;SDS011;28351;51.480;5.706;2022-09-09T17:15:57;2.78;;;1.50;;
42714;SDS011;28351;51.480;5.706;2022-09-09T17:18:23;4.28;;;1.50;;
42714;SDS011;28351;51.480;5.706;2022-09-09T17:21:03;2.40;;;1.75;;
42714;SDS011;28351;51.480;5.706;2022-09-09T17:23:31;1.88;;;1.40;;
42714;SDS011;28351;51.480;5.706;2022-09-09T17:26:27;3.45;;;1.63;;